Poitiers, France

4:50 AM CEST on October 25, 2014 (GMT +0200)
Biard | Change Station
CLOSE
Current Station
Airport
Location: Poitiers,
Elevation: 394 ft
Nearby Weather Stations

Elev 394 ft 46.59 °N, 0.31 °E | Updated 20 minutes ago

Mostly Cloudy
Mostly Cloudy
50 °F
Feels Like 50 °F
N
2
Wind Variable Wind from South

Today
High -- | Low -- °F
--% Chance of Precip.
Yesterday
High -- | Low -- °F
Precip. -- in
8:30 AM 6:54 PM
New Moon, 2% visible
Pressure 30.09 in
Visibility 5.6 miles
Clouds Scattered Clouds 4700 ft
Mostly Cloudy 5800 ft
Mostly Cloudy 10000 ft
Dew Point 48 °F
Humidity 94%
Rainfall 0.00 in
Snow Depth Not available.
UV 0 out of 12
Pollen Not available.
Air Quality Not available.
Flu Activity Not available.
METAR LFBI 250230Z AUTO 18002KT 9000 SCT047 BKN058 BKN100 10/09 Q1019

More Conditions Fewer Conditions

Pressure 30.09 in
Visibility 5.6 miles
Clouds Scattered Clouds 4700 ft
Mostly Cloudy 5800 ft
Mostly Cloudy 10000 ft
Dew Point 48 °F
Humidity 94%
Rainfall 0.00 in
Snow Depth Not available.
UV 0 out of 12
Pollen Not available.
Air Quality Not available.
Flu Activity Not available.
METAR LFBI 250230Z AUTO 18002KT 9000 SCT047 BKN058 BKN100 10/09 Q1019

More Conditions Fewer Conditions

10-Day Weather Forecast

Almanac

Astronomy

Oct. 25, 2014 Rise Set
Actual Time 8:30 AM CEST 6:54 PM CEST
Civil Twilight 7:58 AM CEST 7:25 PM CEST
Nautical Twilight 7:23 AM CEST 8:01 PM CEST
Astronomical Twilight 6:48 AM CEST 8:36 PM CEST
Moon 9:57 AM CEST 8:01 PM CEST
Length of Visible Light 11h 26m
Length of Day
10h 24m
Tomorrow will be 3m 5s shorter.
New Moon, 2% of the Moon is Illuminated
Oct 24
New Moon
Oct 30
First Quarter
Nov 6
Full
Nov 14
Last Quarter
Nov 22
New

Yesterday's Extremes

Country Highs Country Lows

Community

WunderPhotos

Upload Photos

1,764,760 photos uploaded!

Nearby

Snow Depth

Not available.

Earthquake Activity

City Distance Mag. Time & Date
No recent earthquake activity has been reported nearby.
Minimum magnitude displayed is 2.5.

Coastal Water Temperatures

Place Temperature
No Stations Reporting

Nearby Weather Stations